sensor_id;sensor_type;location;lat;lon;timestamp;pressure;altitude;pressure_sealevel;temperature;humidity
20710;BME280;10516;51.518;9.864;2022-11-02T00:01:13;99086.72;;;10.57;72.16
20710;BME280;10516;51.518;9.864;2022-11-02T00:03:39;99099.69;;;10.66;72.21
20710;BME280;10516;51.518;9.864;2022-11-02T00:06:04;99081.75;;;10.16;73.15
20710;BME280;10516;51.518;9.864;2022-11-02T00:08:30;99094.19;;;10.72;71.32
20710;BME280;10516;51.518;9.864;2022-11-02T00:10:55;99099.97;;;10.36;72.11
20710;BME280;10516;51.518;9.864;2022-11-02T00:13:21;99091.13;;;9.91;74.11
20710;BME280;10516;51.518;9.864;2022-11-02T00:15:46;99095.84;;;10.28;72.66
20710;BME280;10516;51.518;9.864;2022-11-02T00:18:13;99089.47;;;9.61;73.18
20710;BME280;10516;51.518;9.864;2022-11-02T00:20:40;99085.16;;;10.00;74.10
20710;BME280;10516;51.518;9.864;2022-11-02T00:23:08;99084.94;;;10.30;72.25
20710;BME280;10516;51.518;9.864;2022-11-02T00:25:47;99072.59;;;9.84;73.74
20710;BME280;10516;51.518;9.864;2022-11-02T00:28:15;99062.94;;;9.55;73.33
20710;BME280;10516;51.518;9.864;2022-11-02T00:30:41;99000.81;;;9.38;73.63
20710;BME280;10516;51.518;9.864;2022-11-02T00:33:07;99074.69;;;10.10;72.18
20710;BME280;10516;51.518;9.864;2022-11-02T00:35:33;99057.53;;;10.34;71.25
20710;BME280;10516;51.518;9.864;2022-11-02T00:37:58;99076.09;;;10.29;72.28
20710;BME280;10516;51.518;9.864;2022-11-02T00:40:24;99071.88;;;9.89;73.60
20710;BME280;10516;51.518;9.864;2022-11-02T00:42:49;99068.91;;;10.13;73.25
20710;BME280;10516;51.518;9.864;2022-11-02T00:45:15;99069.72;;;9.34;74.93
20710;BME280;10516;51.518;9.864;2022-11-02T00:47:40;99065.56;;;9.27;75.79
20710;BME280;10516;51.518;9.864;2022-11-02T00:50:06;99061.97;;;9.72;74.19
20710;BME280;10516;51.518;9.864;2022-11-02T00:52:31;99058.19;;;9.17;75.12
20710;BME280;10516;51.518;9.864;2022-11-02T00:54:57;99042.28;;;9.34;75.44
20710;BME280;10516;51.518;9.864;2022-11-02T00:57:22;99059.91;;;9.35;76.67
20710;BME280;10516;51.518;9.864;2022-11-02T00:59:48;99052.19;;;8.87;77.07
20710;BME280;10516;51.518;9.864;2022-11-02T01:02:13;99051.34;;;9.21;76.61
20710;BME280;10516;51.518;9.864;2022-11-02T01:04:39;99042.44;;;9.16;76.96
20710;BME280;10516;51.518;9.864;2022-11-02T01:07:04;99041.88;;;9.53;75.77
20710;BME280;10516;51.518;9.864;2022-11-02T01:09:29;99026.44;;;9.67;75.14
20710;BME280;10516;51.518;9.864;2022-11-02T01:11:55;99023.19;;;9.93;74.01
20710;BME280;10516;51.518;9.864;2022-11-02T01:14:21;99029.75;;;9.74;74.64
20710;BME280;10516;51.518;9.864;2022-11-02T01:16:47;99040.28;;;9.80;74.86
20710;BME280;10516;51.518;9.864;2022-11-02T01:19:12;99043.88;;;9.74;74.67
20710;BME280;10516;51.518;9.864;2022-11-02T01:21:38;99030.38;;;10.09;74.37
20710;BME280;10516;51.518;9.864;2022-11-02T01:24:04;99041.34;;;9.96;74.77
20710;BME280;10516;51.518;9.864;2022-11-02T01:26:29;99013.22;;;9.89;74.59
20710;BME280;10516;51.518;9.864;2022-11-02T01:28:54;99007.69;;;9.78;75.38
20710;BME280;10516;51.518;9.864;2022-11-02T01:31:20;99021.41;;;9.99;75.22
20710;BME280;10516;51.518;9.864;2022-11-02T01:33:46;99007.38;;;9.75;74.82
20710;BME280;10516;51.518;9.864;2022-11-02T01:36:14;99041.16;;;9.86;75.00
20710;BME280;10516;51.518;9.864;2022-11-02T01:38:40;99028.41;;;9.88;74.93
20710;BME280;10516;51.518;9.864;2022-11-02T01:41:06;99030.97;;;10.11;74.62
20710;BME280;10516;51.518;9.864;2022-11-02T01:43:34;99023.91;;;10.05;74.07
20710;BME280;10516;51.518;9.864;2022-11-02T01:51:05;98998.84;;;9.90;74.57
20710;BME280;10516;51.518;9.864;2022-11-02T01:53:35;98994.41;;;9.95;74.70
20710;BME280;10516;51.518;9.864;2022-11-02T01:56:01;98990.38;;;10.09;74.71
20710;BME280;10516;51.518;9.864;2022-11-02T01:58:28;98993.97;;;10.15;74.88
20710;BME280;10516;51.518;9.864;2022-11-02T02:00:55;98964.91;;;10.13;73.81
20710;BME280;10516;51.518;9.864;2022-11-02T02:03:21;98967.03;;;10.00;75.11
20710;BME280;10516;51.518;9.864;2022-11-02T02:06:10;98986.28;;;10.18;74.28
20710;BME280;10516;51.518;9.864;2022-11-02T02:08:36;98972.91;;;10.13;74.64
20710;BME280;10516;51.518;9.864;2022-11-02T02:13:48;98963.34;;;10.17;74.44
20710;BME280;10516;51.518;9.864;2022-11-02T02:16:22;98960.91;;;10.16;74.22
20710;BME280;10516;51.518;9.864;2022-11-02T02:18:58;98959.59;;;10.02;74.99
20710;BME280;10516;51.518;9.864;2022-11-02T02:21:32;98984.94;;;10.32;74.45
20710;BME280;10516;51.518;9.864;2022-11-02T02:24:07;98978.06;;;10.20;74.67
20710;BME280;10516;51.518;9.864;2022-11-02T02:27:01;98973.28;;;10.22;74.59
20710;BME280;10516;51.518;9.864;2022-11-02T02:29:53;98977.25;;;10.19;75.27
20710;BME280;10516;51.518;9.864;2022-11-02T02:32:37;98972.31;;;10.28;74.69
20710;BME280;10516;51.518;9.864;2022-11-02T02:35:23;98957.69;;;10.14;74.98
20710;BME280;10516;51.518;9.864;2022-11-02T02:37:57;98964.94;;;10.18;75.24
20710;BME280;10516;51.518;9.864;2022-11-02T02:43:03;98955.66;;;10.21;74.88
20710;BME280;10516;51.518;9.864;2022-11-02T02:45:42;98963.03;;;10.30;74.31
20710;BME280;10516;51.518;9.864;2022-11-02T02:48:13;98961.41;;;10.29;74.71
20710;BME280;10516;51.518;9.864;2022-11-02T02:50:46;98952.81;;;10.27;75.05
20710;BME280;10516;51.518;9.864;2022-11-02T02:53:14;98958.34;;;10.37;74.62
20710;BME280;10516;51.518;9.864;2022-11-02T02:55:44;98946.28;;;10.18;74.81
20710;BME280;10516;51.518;9.864;2022-11-02T02:58:16;98959.16;;;10.21;74.83
20710;BME280;10516;51.518;9.864;2022-11-02T03:00:43;98958.38;;;10.09;75.77
20710;BME280;10516;51.518;9.864;2022-11-02T03:03:11;98927.84;;;10.00;75.59
20710;BME280;10516;51.518;9.864;2022-11-02T03:05:40;98956.63;;;10.31;75.24
20710;BME280;10516;51.518;9.864;2022-11-02T03:08:11;98928.78;;;9.77;77.00
20710;BME280;10516;51.518;9.864;2022-11-02T03:10:45;98935.38;;;10.20;75.03
20710;BME280;10516;51.518;9.864;2022-11-02T03:13:26;98951.63;;;10.18;76.01
20710;BME280;10516;51.518;9.864;2022-11-02T03:16:02;98895.38;;;9.87;76.01
20710;BME280;10516;51.518;9.864;2022-11-02T03:18:45;98927.38;;;10.20;75.01
20710;BME280;10516;51.518;9.864;2022-11-02T03:21:41;98945.06;;;10.26;75.51
20710;BME280;10516;51.518;9.864;2022-11-02T03:26:46;98919.78;;;10.12;75.15
20710;BME280;10516;51.518;9.864;2022-11-02T03:29:22;98915.66;;;10.04;75.75
20710;BME280;10516;51.518;9.864;2022-11-02T03:31:56;98943.63;;;10.18;75.14
20710;BME280;10516;51.518;9.864;2022-11-02T03:37:01;98951.63;;;10.18;75.22
20710;BME280;10516;51.518;9.864;2022-11-02T03:39:37;98966.34;;;10.21;75.81
20710;BME280;10516;51.518;9.864;2022-11-02T03:42:04;98968.09;;;10.32;75.96
20710;BME280;10516;51.518;9.864;2022-11-02T03:44:35;98965.13;;;10.12;75.50
20710;BME280;10516;51.518;9.864;2022-11-02T03:47:02;98967.41;;;10.20;75.71
20710;BME280;10516;51.518;9.864;2022-11-02T03:49:30;98953.16;;;10.14;75.20
20710;BME280;10516;51.518;9.864;2022-11-02T03:52:00;98961.03;;;10.09;75.89
20710;BME280;10516;51.518;9.864;2022-11-02T03:54:47;98971.81;;;10.14;75.36
20710;BME280;10516;51.518;9.864;2022-11-02T03:57:20;98975.97;;;10.22;75.93
20710;BME280;10516;51.518;9.864;2022-11-02T03:59:47;98984.53;;;10.24;76.10
20710;BME280;10516;51.518;9.864;2022-11-02T04:02:13;98954.91;;;10.09;76.15
20710;BME280;10516;51.518;9.864;2022-11-02T04:04:50;98948.28;;;9.95;76.45
20710;BME280;10516;51.518;9.864;2022-11-02T04:07:19;98959.72;;;10.23;75.64
20710;BME280;10516;51.518;9.864;2022-11-02T04:09:46;98979.03;;;10.30;75.25
20710;BME280;10516;51.518;9.864;2022-11-02T04:12:11;98966.25;;;10.16;75.93
20710;BME280;10516;51.518;9.864;2022-11-02T04:14:55;98973.78;;;10.19;75.79
20710;BME280;10516;51.518;9.864;2022-11-02T04:17:21;98981.19;;;10.33;76.05
20710;BME280;10516;51.518;9.864;2022-11-02T04:20:05;98980.47;;;10.38;75.92
20710;BME280;10516;51.518;9.864;2022-11-02T04:22:31;98967.06;;;10.33;75.45
20710;BME280;10516;51.518;9.864;2022-11-02T04:25:18;98971.97;;;10.24;75.88
20710;BME280;10516;51.518;9.864;2022-11-02T04:27:46;98980.47;;;10.21;75.97
20710;BME280;10516;51.518;9.864;2022-11-02T04:30:13;98988.16;;;10.34;76.00
20710;BME280;10516;51.518;9.864;2022-11-02T04:32:40;98979.41;;;10.22;76.32
20710;BME280;10516;51.518;9.864;2022-11-02T04:35:24;98979.50;;;10.27;75.95
20710;BME280;10516;51.518;9.864;2022-11-02T04:37:49;98983.06;;;10.33;76.37
20710;BME280;10516;51.518;9.864;2022-11-02T04:40:33;98999.88;;;10.33;76.58
20710;BME280;10516;51.518;9.864;2022-11-02T04:42:59;99004.56;;;10.43;76.05
20710;BME280;10516;51.518;9.864;2022-11-02T04:45:24;98999.72;;;10.23;76.35
20710;BME280;10516;51.518;9.864;2022-11-02T04:47:50;99005.28;;;10.38;76.33
20710;BME280;10516;51.518;9.864;2022-11-02T04:50:15;98990.25;;;10.32;76.37
20710;BME280;10516;51.518;9.864;2022-11-02T04:52:40;99007.50;;;10.41;76.78
20710;BME280;10516;51.518;9.864;2022-11-02T04:55:06;98998.28;;;10.32;76.88
20710;BME280;10516;51.518;9.864;2022-11-02T04:57:32;99006.28;;;10.32;76.40
20710;BME280;10516;51.518;9.864;2022-11-02T04:59:57;98971.66;;;10.21;76.35
20710;BME280;10516;51.518;9.864;2022-11-02T05:02:22;98972.38;;;10.16;76.52
20710;BME280;10516;51.518;9.864;2022-11-02T05:04:48;98996.16;;;10.34;76.90
20710;BME280;10516;51.518;9.864;2022-11-02T05:07:13;98988.22;;;10.23;77.06
20710;BME280;10516;51.518;9.864;2022-11-02T05:09:38;98985.63;;;10.11;77.83
20710;BME280;10516;51.518;9.864;2022-11-02T05:12:06;98995.84;;;10.14;77.04
20710;BME280;10516;51.518;9.864;2022-11-02T05:14:32;98990.97;;;10.11;77.57
20710;BME280;10516;51.518;9.864;2022-11-02T05:16:58;99003.94;;;10.19;77.67
20710;BME280;10516;51.518;9.864;2022-11-02T05:19:23;98986.22;;;10.13;77.78
20710;BME280;10516;51.518;9.864;2022-11-02T05:21:49;99002.63;;;10.22;77.39
20710;BME280;10516;51.518;9.864;2022-11-02T05:24:14;98976.31;;;9.97;77.98
20710;BME280;10516;51.518;9.864;2022-11-02T05:26:40;98994.56;;;10.05;78.02
20710;BME280;10516;51.518;9.864;2022-11-02T05:29:05;98996.31;;;10.11;78.49
20710;BME280;10516;51.518;9.864;2022-11-02T05:31:31;99000.69;;;10.17;78.07
20710;BME280;10516;51.518;9.864;2022-11-02T05:33:57;98989.09;;;9.95;79.06
20710;BME280;10516;51.518;9.864;2022-11-02T05:36:22;99016.13;;;10.15;78.89
20710;BME280;10516;51.518;9.864;2022-11-02T05:38:54;98993.44;;;10.01;78.58
20710;BME280;10516;51.518;9.864;2022-11-02T05:41:20;99006.97;;;10.11;78.41
20710;BME280;10516;51.518;9.864;2022-11-02T05:43:45;99012.31;;;10.11;78.76
20710;BME280;10516;51.518;9.864;2022-11-02T05:46:11;98991.50;;;9.97;79.41
20710;BME280;10516;51.518;9.864;2022-11-02T05:48:39;99006.53;;;10.03;79.41
20710;BME280;10516;51.518;9.864;2022-11-02T05:51:05;98998.69;;;9.96;78.91
20710;BME280;10516;51.518;9.864;2022-11-02T05:53:30;99015.09;;;10.05;79.06
20710;BME280;10516;51.518;9.864;2022-11-02T05:55:59;98999.03;;;10.00;79.44
20710;BME280;10516;51.518;9.864;2022-11-02T05:58:25;98991.66;;;9.90;79.40
20710;BME280;10516;51.518;9.864;2022-11-02T06:00:50;99012.69;;;10.03;79.62
20710;BME280;10516;51.518;9.864;2022-11-02T06:03:15;99005.91;;;9.96;79.27
20710;BME280;10516;51.518;9.864;2022-11-02T06:05:42;99021.78;;;9.91;79.92
20710;BME280;10516;51.518;9.864;2022-11-02T06:08:07;99026.97;;;9.97;79.56
20710;BME280;10516;51.518;9.864;2022-11-02T06:10:32;99050.25;;;10.02;79.50
20710;BME280;10516;51.518;9.864;2022-11-02T06:13:00;99046.69;;;9.96;79.47
20710;BME280;10516;51.518;9.864;2022-11-02T06:15:26;99057.53;;;10.06;79.69
20710;BME280;10516;51.518;9.864;2022-11-02T06:17:52;99036.97;;;9.90;79.53
20710;BME280;10516;51.518;9.864;2022-11-02T06:20:18;99052.94;;;10.02;80.16
20710;BME280;10516;51.518;9.864;2022-11-02T06:22:44;99046.69;;;9.96;80.02
20710;BME280;10516;51.518;9.864;2022-11-02T06:25:10;99050.41;;;9.95;79.84
20710;BME280;10516;51.518;9.864;2022-11-02T06:27:35;99037.53;;;9.92;79.80
20710;BME280;10516;51.518;9.864;2022-11-02T06:30:02;99049.16;;;9.86;80.37
20710;BME280;10516;51.518;9.864;2022-11-02T06:32:27;99069.88;;;9.96;79.85
20710;BME280;10516;51.518;9.864;2022-11-02T06:34:53;99056.13;;;9.87;79.87
20710;BME280;10516;51.518;9.864;2022-11-02T06:37:18;99054.50;;;9.86;79.52
20710;BME280;10516;51.518;9.864;2022-11-02T06:39:44;99058.72;;;9.99;79.76
20710;BME280;10516;51.518;9.864;2022-11-02T06:42:09;99066.25;;;10.02;79.57
20710;BME280;10516;51.518;9.864;2022-11-02T06:44:34;99076.31;;;10.11;80.14
20710;BME280;10516;51.518;9.864;2022-11-02T06:47:00;99063.69;;;10.07;79.79
20710;BME280;10516;51.518;9.864;2022-11-02T06:49:25;99058.81;;;10.04;79.41
20710;BME280;10516;51.518;9.864;2022-11-02T06:51:50;99087.06;;;10.16;79.20
20710;BME280;10516;51.518;9.864;2022-11-02T06:54:16;99094.25;;;10.16;79.48
20710;BME280;10516;51.518;9.864;2022-11-02T06:56:41;99061.59;;;10.09;79.69
20710;BME280;10516;51.518;9.864;2022-11-02T06:59:07;99091.38;;;10.17;79.39
20710;BME280;10516;51.518;9.864;2022-11-02T07:01:32;99089.03;;;10.21;79.04
20710;BME280;10516;51.518;9.864;2022-11-02T07:03:59;99075.03;;;10.14;78.92
20710;BME280;10516;51.518;9.864;2022-11-02T07:06:24;99097.94;;;10.26;79.07
20710;BME280;10516;51.518;9.864;2022-11-02T07:08:50;99087.75;;;10.23;79.36
20710;BME280;10516;51.518;9.864;2022-11-02T07:11:15;99086.13;;;10.22;78.67
20710;BME280;10516;51.518;9.864;2022-11-02T07:13:41;99095.09;;;10.16;78.80
20710;BME280;10516;51.518;9.864;2022-11-02T07:16:07;99115.97;;;10.36;78.33
20710;BME280;10516;51.518;9.864;2022-11-02T07:18:32;99084.41;;;10.16;79.17
20710;BME280;10516;51.518;9.864;2022-11-02T07:20:58;99107.81;;;10.26;78.85
20710;BME280;10516;51.518;9.864;2022-11-02T07:23:24;99106.59;;;10.33;78.54
20710;BME280;10516;51.518;9.864;2022-11-02T07:25:50;99125.84;;;10.35;78.93
20710;BME280;10516;51.518;9.864;2022-11-02T07:28:15;99115.47;;;10.22;79.11
20710;BME280;10516;51.518;9.864;2022-11-02T07:30:40;99132.69;;;10.31;79.41
20710;BME280;10516;51.518;9.864;2022-11-02T07:33:06;99139.09;;;10.30;78.94
20710;BME280;10516;51.518;9.864;2022-11-02T07:35:31;99124.38;;;10.28;79.00
20710;BME280;10516;51.518;9.864;2022-11-02T07:38:00;99115.69;;;10.21;79.31
20710;BME280;10516;51.518;9.864;2022-11-02T07:40:27;99133.50;;;10.32;79.04
20710;BME280;10516;51.518;9.864;2022-11-02T07:42:52;99135.72;;;10.35;78.52
20710;BME280;10516;51.518;9.864;2022-11-02T07:45:19;99133.84;;;10.35;78.36
20710;BME280;10516;51.518;9.864;2022-11-02T07:47:46;99126.63;;;10.19;79.00
20710;BME280;10516;51.518;9.864;2022-11-02T07:50:13;99140.22;;;10.34;78.42
20710;BME280;10516;51.518;9.864;2022-11-02T07:52:46;99145.09;;;10.37;78.29
20710;BME280;10516;51.518;9.864;2022-11-02T07:55:16;99127.50;;;10.25;78.88
20710;BME280;10516;51.518;9.864;2022-11-02T07:57:42;99125.03;;;10.35;77.91
20710;BME280;10516;51.518;9.864;2022-11-02T08:00:09;99138.38;;;10.35;78.61
20710;BME280;10516;51.518;9.864;2022-11-02T08:02:35;99143.38;;;10.31;78.47
20710;BME280;10516;51.518;9.864;2022-11-02T08:05:01;99144.72;;;10.45;78.14
20710;BME280;10516;51.518;9.864;2022-11-02T08:07:26;99129.47;;;10.29;78.27
20710;BME280;10516;51.518;9.864;2022-11-02T08:09:51;99155.13;;;10.47;78.96
20710;BME280;10516;51.518;9.864;2022-11-02T08:12:17;99129.97;;;10.43;77.60
20710;BME280;10516;51.518;9.864;2022-11-02T08:14:42;99148.53;;;10.66;77.59
20710;BME280;10516;51.518;9.864;2022-11-02T08:17:07;99120.44;;;10.47;77.68
20710;BME280;10516;51.518;9.864;2022-11-02T08:19:32;99147.72;;;10.66;77.33
20710;BME280;10516;51.518;9.864;2022-11-02T08:21:58;99128.53;;;10.52;77.52
20710;BME280;10516;51.518;9.864;2022-11-02T08:24:23;99148.66;;;10.60;77.27
20710;BME280;10516;51.518;9.864;2022-11-02T08:26:49;99138.50;;;10.57;77.67
20710;BME280;10516;51.518;9.864;2022-11-02T08:29:14;99136.88;;;10.55;77.52
20710;BME280;10516;51.518;9.864;2022-11-02T08:31:39;99130.41;;;10.51;77.06
20710;BME280;10516;51.518;9.864;2022-11-02T08:34:05;99162.22;;;10.70;77.20
20710;BME280;10516;51.518;9.864;2022-11-02T08:36:30;99148.53;;;10.66;77.28
20710;BME280;10516;51.518;9.864;2022-11-02T08:38:55;99164.53;;;10.66;77.22
20710;BME280;10516;51.518;9.864;2022-11-02T08:41:21;99149.50;;;10.60;76.96
20710;BME280;10516;51.518;9.864;2022-11-02T08:43:46;99176.38;;;10.70;77.58
20710;BME280;10516;51.518;9.864;2022-11-02T08:46:12;99149.03;;;10.63;77.69
20710;BME280;10516;51.518;9.864;2022-11-02T08:48:37;99157.91;;;10.69;77.37
20710;BME280;10516;51.518;9.864;2022-11-02T08:51:02;99167.72;;;10.63;77.34
20710;BME280;10516;51.518;9.864;2022-11-02T08:53:29;99173.56;;;10.77;77.32
20710;BME280;10516;51.518;9.864;2022-11-02T08:55:58;99170.88;;;10.77;77.68
20710;BME280;10516;51.518;9.864;2022-11-02T08:58:23;99188.59;;;10.83;77.50
20710;BME280;10516;51.518;9.864;2022-11-02T09:00:51;99154.34;;;10.63;77.54
20710;BME280;10516;51.518;9.864;2022-11-02T09:03:16;99186.25;;;10.86;77.13
20710;BME280;10516;51.518;9.864;2022-11-02T09:05:45;99179.53;;;10.84;77.25
20710;BME280;10516;51.518;9.864;2022-11-02T09:08:18;99150.31;;;10.61;77.35
20710;BME280;10516;51.518;9.864;2022-11-02T09:10:47;99189.25;;;10.90;77.00
20710;BME280;10516;51.518;9.864;2022-11-02T09:13:14;99197.03;;;10.91;77.45
20710;BME280;10516;51.518;9.864;2022-11-02T09:15:40;99211.91;;;10.87;77.46
20710;BME280;10516;51.518;9.864;2022-11-02T09:18:06;99184.44;;;10.75;77.35
20710;BME280;10516;51.518;9.864;2022-11-02T09:20:31;99196.94;;;10.86;77.01
20710;BME280;10516;51.518;9.864;2022-11-02T09:22:57;99215.31;;;10.99;77.40
20710;BME280;10516;51.518;9.864;2022-11-02T09:25:22;99217.41;;;10.97;77.16
20710;BME280;10516;51.518;9.864;2022-11-02T09:27:54;99213.44;;;11.00;77.33
20710;BME280;10516;51.518;9.864;2022-11-02T09:30:21;99220.91;;;10.98;76.87
20710;BME280;10516;51.518;9.864;2022-11-02T09:33:12;99210.38;;;10.91;77.30
20710;BME280;10516;51.518;9.864;2022-11-02T09:35:41;99229.78;;;11.03;76.99
20710;BME280;10516;51.518;9.864;2022-11-02T09:38:07;99215.88;;;11.01;76.37
20710;BME280;10516;51.518;9.864;2022-11-02T09:43:47;99245.03;;;11.36;76.79
20710;BME280;10516;51.518;9.864;2022-11-02T09:46:26;99249.97;;;11.44;76.61
20710;BME280;10516;51.518;9.864;2022-11-02T09:48:57;99235.38;;;11.52;76.06
20710;BME280;10516;51.518;9.864;2022-11-02T09:51:27;99228.19;;;11.52;75.21
20710;BME280;10516;51.518;9.864;2022-11-02T09:54:06;99244.13;;;11.64;75.58
20710;BME280;10516;51.518;9.864;2022-11-02T09:56:33;99241.31;;;11.70;75.00
20710;BME280;10516;51.518;9.864;2022-11-02T09:59:05;99254.91;;;11.85;74.72
20710;BME280;10516;51.518;9.864;2022-11-02T10:08:13;99252.72;;;12.04;73.86
20710;BME280;10516;51.518;9.864;2022-11-02T10:13:22;99257.34;;;12.09;72.86
20710;BME280;10516;51.518;9.864;2022-11-02T10:15:56;99237.38;;;11.94;72.77
20710;BME280;10516;51.518;9.864;2022-11-02T10:18:26;99252.25;;;12.07;72.51
20710;BME280;10516;51.518;9.864;2022-11-02T10:20:55;99245.59;;;12.10;72.20
20710;BME280;10516;51.518;9.864;2022-11-02T10:23:42;99246.50;;;11.98;72.63
20710;BME280;10516;51.518;9.864;2022-11-02T10:26:32;99251.91;;;12.03;72.08
20710;BME280;10516;51.518;9.864;2022-11-02T10:29:03;99253.91;;;11.91;72.31
20710;BME280;10516;51.518;9.864;2022-11-02T10:31:33;99257.22;;;11.98;71.77
20710;BME280;10516;51.518;9.864;2022-11-02T10:34:26;99252.72;;;12.04;71.28
20710;BME280;10516;51.518;9.864;2022-11-02T10:45:47;99262.31;;;12.22;69.64
20710;BME280;10516;51.518;9.864;2022-11-02T10:51:11;99254.84;;;12.02;69.75
20710;BME280;10516;51.518;9.864;2022-11-02T10:53:45;99225.03;;;11.93;69.62
20710;BME280;10516;51.518;9.864;2022-11-02T10:59:02;99242.34;;;12.29;69.13
20710;BME280;10516;51.518;9.864;2022-11-02T11:01:33;99256.97;;;12.22;69.14
20710;BME280;10516;51.518;9.864;2022-11-02T11:04:04;99271.66;;;12.19;68.91
20710;BME280;10516;51.518;9.864;2022-11-02T11:06:36;99253.66;;;12.15;68.67
20710;BME280;10516;51.518;9.864;2022-11-02T11:09:25;99250.94;;;12.10;68.80
20710;BME280;10516;51.518;9.864;2022-11-02T11:12:02;99229.19;;;11.84;69.75
20710;BME280;10516;51.518;9.864;2022-11-02T11:14:30;99249.00;;;12.05;68.95
20710;BME280;10516;51.518;9.864;2022-11-02T11:17:00;99272.16;;;12.16;68.90
20710;BME280;10516;51.518;9.864;2022-11-02T11:19:28;99277.44;;;12.33;68.94
20710;BME280;10516;51.518;9.864;2022-11-02T11:21:56;99263.44;;;12.26;68.99
20710;BME280;10516;51.518;9.864;2022-11-02T11:24:30;99279.09;;;12.34;68.82
20710;BME280;10516;51.518;9.864;2022-11-02T11:29:29;99270.72;;;12.52;67.64
20710;BME280;10516;51.518;9.864;2022-11-02T11:31:55;99263.31;;;12.37;64.32
20710;BME280;10516;51.518;9.864;2022-11-02T11:34:31;99270.13;;;12.45;64.91
20710;BME280;10516;51.518;9.864;2022-11-02T11:37:11;99273.41;;;12.52;64.01
20710;BME280;10516;51.518;9.864;2022-11-02T11:39:41;99255.97;;;12.49;64.87
20710;BME280;10516;51.518;9.864;2022-11-02T11:42:19;99286.88;;;12.84;63.68
20710;BME280;10516;51.518;9.864;2022-11-02T11:45:05;99270.25;;;12.82;63.37
20710;BME280;10516;51.518;9.864;2022-11-02T11:47:39;99272.19;;;12.86;64.03
20710;BME280;10516;51.518;9.864;2022-11-02T11:50:15;99270.53;;;13.07;63.91
20710;BME280;10516;51.518;9.864;2022-11-02T11:52:42;99291.25;;;13.16;62.64
20710;BME280;10516;51.518;9.864;2022-11-02T11:55:23;99291.75;;;13.13;62.29
20710;BME280;10516;51.518;9.864;2022-11-02T12:00:35;99267.53;;;13.03;62.73
20710;BME280;10516;51.518;9.864;2022-11-02T12:03:12;99274.97;;;13.23;61.20
20710;BME280;10516;51.518;9.864;2022-11-02T12:06:03;99282.63;;;13.41;61.48
20710;BME280;10516;51.518;9.864;2022-11-02T12:09:10;99275.47;;;13.51;60.86
20710;BME280;10516;51.518;9.864;2022-11-02T12:25:33;99282.34;;;13.74;59.75
20710;BME280;10516;51.518;9.864;2022-11-02T12:28:20;99273.38;;;13.95;59.74
20710;BME280;10516;51.518;9.864;2022-11-02T12:31:13;99296.75;;;14.05;60.12
20710;BME280;10516;51.518;9.864;2022-11-02T12:39:07;99292.56;;;13.45;60.26
20710;BME280;10516;51.518;9.864;2022-11-02T12:54:44;99287.22;;;14.24;57.32
20710;BME280;10516;51.518;9.864;2022-11-02T12:57:14;99297.00;;;14.45;57.25
20710;BME280;10516;51.518;9.864;2022-11-02T12:59:42;99290.28;;;14.43;57.41
20710;BME280;10516;51.518;9.864;2022-11-02T13:02:15;99294.34;;;14.50;57.18
20710;BME280;10516;51.518;9.864;2022-11-02T13:04:57;99303.13;;;14.31;57.41
20710;BME280;10516;51.518;9.864;2022-11-02T13:07:30;99285.50;;;14.08;58.26
20710;BME280;10516;51.518;9.864;2022-11-02T13:10:04;99303.22;;;14.09;56.71
20710;BME280;10516;51.518;9.864;2022-11-02T13:12:32;99303.16;;;13.99;57.19
20710;BME280;10516;51.518;9.864;2022-11-02T13:15:01;99297.84;;;14.09;57.70
20710;BME280;10516;51.518;9.864;2022-11-02T13:17:43;99296.56;;;13.75;58.31
20710;BME280;10516;51.518;9.864;2022-11-02T13:20:44;99310.03;;;13.80;58.37
20710;BME280;10516;51.518;9.864;2022-11-02T13:23:30;99301.16;;;13.79;57.86
20710;BME280;10516;51.518;9.864;2022-11-02T13:26:10;99314.34;;;13.86;58.39
20710;BME280;10516;51.518;9.864;2022-11-02T13:28:42;99314.31;;;13.81;58.77
20710;BME280;10516;51.518;9.864;2022-11-02T13:31:33;99309.63;;;14.03;58.02
20710;BME280;10516;51.518;9.864;2022-11-02T13:34:03;99315.97;;;13.87;58.10
20710;BME280;10516;51.518;9.864;2022-11-02T13:36:35;99301.31;;;14.04;56.11
20710;BME280;10516;51.518;9.864;2022-11-02T13:39:09;99314.03;;;13.77;57.74
20710;BME280;10516;51.518;9.864;2022-11-02T13:45:09;99315.06;;;14.13;58.39
20710;BME280;10516;51.518;9.864;2022-11-02T13:48:14;99322.53;;;14.11;58.54
20710;BME280;10516;51.518;9.864;2022-11-02T13:50:46;99284.53;;;14.24;58.29
20710;BME280;10516;51.518;9.864;2022-11-02T13:53:26;99316.81;;;14.34;57.11
20710;BME280;10516;51.518;9.864;2022-11-02T13:55:56;99318.59;;;14.18;58.28
20710;BME280;10516;51.518;9.864;2022-11-02T13:58:31;99297.66;;;14.20;58.05
20710;BME280;10516;51.518;9.864;2022-11-02T14:01:01;99319.94;;;14.21;58.30
20710;BME280;10516;51.518;9.864;2022-11-02T14:03:44;99310.84;;;13.80;57.34
20710;BME280;10516;51.518;9.864;2022-11-02T14:06:14;99328.16;;;14.04;59.23
20710;BME280;10516;51.518;9.864;2022-11-02T14:08:46;99313.25;;;13.82;58.54
20710;BME280;10516;51.518;9.864;2022-11-02T14:22:04;99320.00;;;13.52;56.40
20710;BME280;10516;51.518;9.864;2022-11-02T14:37:44;99332.28;;;13.48;59.05
20710;BME280;10516;51.518;9.864;2022-11-02T14:48:13;99321.94;;;13.30;58.62
20710;BME280;10516;51.518;9.864;2022-11-02T14:50:41;99307.78;;;13.35;58.78
20710;BME280;10516;51.518;9.864;2022-11-02T14:53:16;99306.47;;;13.37;59.21
20710;BME280;10516;51.518;9.864;2022-11-02T14:55:51;99317.31;;;13.21;58.53
20710;BME280;10516;51.518;9.864;2022-11-02T14:58:18;99322.88;;;13.46;59.78
20710;BME280;10516;51.518;9.864;2022-11-02T15:06:02;99329.53;;;13.38;59.93
20710;BME280;10516;51.518;9.864;2022-11-02T15:11:42;99330.19;;;13.24;61.08
20710;BME280;10516;51.518;9.864;2022-11-02T15:24:53;99308.38;;;12.67;60.13
20710;BME280;10516;51.518;9.864;2022-11-02T15:27:21;99312.00;;;12.77;62.42
20710;BME280;10516;51.518;9.864;2022-11-02T15:29:48;99319.53;;;12.80;62.34
20710;BME280;10516;51.518;9.864;2022-11-02T15:32:19;99313.59;;;12.78;62.20